sensor_id;sensor_type;location;lat;lon;timestamp;pressure;altitude;pressure_sealevel;temperature;humidity
78144;BME280;67394;52.522;13.622;2024-02-23T00:01:06;97937.19;;;9.13;100.00
78144;BME280;67394;52.522;13.622;2024-02-23T00:03:33;97937.94;;;9.16;100.00
78144;BME280;67394;52.522;13.622;2024-02-23T00:06:00;97938.66;;;9.20;100.00
78144;BME280;67394;52.522;13.622;2024-02-23T00:08:26;97936.25;;;9.15;100.00
78144;BME280;67394;52.522;13.622;2024-02-23T00:10:53;97936.38;;;9.12;100.00
78144;BME280;67394;52.522;13.622;2024-02-23T00:13:22;97926.94;;;9.14;100.00
78144;BME280;67394;52.522;13.622;2024-02-23T00:15:48;97929.31;;;9.19;100.00
78144;BME280;67394;52.522;13.622;2024-02-23T00:18:15;97926.75;;;9.19;100.00
78144;BME280;67394;52.522;13.622;2024-02-23T00:20:41;97941.25;;;9.18;100.00
78144;BME280;67394;52.522;13.622;2024-02-23T00:23:08;97942.88;;;9.21;100.00
78144;BME280;67394;52.522;13.622;2024-02-23T00:25:34;97935.06;;;9.24;100.00
78144;BME280;67394;52.522;13.622;2024-02-23T00:28:01;97935.06;;;9.24;100.00
78144;BME280;67394;52.522;13.622;2024-02-23T00:30:27;97929.94;;;9.24;100.00
78144;BME280;67394;52.522;13.622;2024-02-23T00:32:54;97924.06;;;9.22;100.00
78144;BME280;67394;52.522;13.622;2024-02-23T00:35:20;97921.41;;;9.25;100.00
78144;BME280;67394;52.522;13.622;2024-02-23T00:37:47;97924.84;;;9.24;100.00
78144;BME280;67394;52.522;13.622;2024-02-23T00:40:13;97929.94;;;9.24;100.00
78144;BME280;67394;52.522;13.622;2024-02-23T00:42:40;97928.94;;;9.28;100.00
78144;BME280;67394;52.522;13.622;2024-02-23T00:45:07;97917.13;;;9.26;100.00
78144;BME280;67394;52.522;13.622;2024-02-23T00:47:34;97925.69;;;9.25;100.00
78144;BME280;67394;52.522;13.622;2024-02-23T00:50:02;97935.91;;;9.25;100.00
78144;BME280;67394;52.522;13.622;2024-02-23T00:52:28;97933.28;;;9.26;100.00
78144;BME280;67394;52.522;13.622;2024-02-23T00:54:55;97935.13;;;9.23;100.00
78144;BME280;67394;52.522;13.622;2024-02-23T00:57:21;97941.22;;;9.20;100.00
78144;BME280;67394;52.522;13.622;2024-02-23T00:59:48;97934.28;;;9.22;100.00
78144;BME280;67394;52.522;13.622;2024-02-23T01:02:14;97928.38;;;9.22;100.00
78144;BME280;67394;52.522;13.622;2024-02-23T01:04:41;97935.25;;;9.20;100.00
78144;BME280;67394;52.522;13.622;2024-02-23T01:07:07;97938.59;;;9.22;100.00
78144;BME280;67394;52.522;13.622;2024-02-23T01:09:33;97942.03;;;9.21;100.00
78144;BME280;67394;52.522;13.622;2024-02-23T01:12:00;97940.38;;;9.20;100.00
78144;BME280;67394;52.522;13.622;2024-02-23T01:14:27;97946.94;;;9.25;100.00
78144;BME280;67394;52.522;13.622;2024-02-23T01:16:54;97958.91;;;9.25;100.00
78144;BME280;67394;52.522;13.622;2024-02-23T01:19:20;97952.84;;;9.27;100.00
78144;BME280;67394;52.522;13.622;2024-02-23T01:21:46;97957.06;;;9.28;100.00
78144;BME280;67394;52.522;13.622;2024-02-23T01:24:13;97979.97;;;9.31;100.00
78144;BME280;67394;52.522;13.622;2024-02-23T01:26:39;97973.97;;;9.32;100.00
78144;BME280;67394;52.522;13.622;2024-02-23T01:29:08;97969.53;;;9.36;100.00
78144;BME280;67394;52.522;13.622;2024-02-23T01:31:35;97992.53;;;9.36;100.00
78144;BME280;67394;52.522;13.622;2024-02-23T01:34:01;97987.38;;;9.37;100.00
78144;BME280;67394;52.522;13.622;2024-02-23T01:36:28;97989.88;;;9.39;100.00
78144;BME280;67394;52.522;13.622;2024-02-23T01:38:54;98002.47;;;9.43;100.00
78144;BME280;67394;52.522;13.622;2024-02-23T01:41:21;98009.25;;;9.44;100.00
78144;BME280;67394;52.522;13.622;2024-02-23T01:43:47;98027.16;;;9.44;100.00
78144;BME280;67394;52.522;13.622;2024-02-23T01:46:14;98011.63;;;9.49;100.00
78144;BME280;67394;52.522;13.622;2024-02-23T01:48:40;98026.56;;;9.60;100.00
78144;BME280;67394;52.522;13.622;2024-02-23T01:51:07;98027.28;;;9.63;100.00
78144;BME280;67394;52.522;13.622;2024-02-23T01:53:34;98035.28;;;9.76;100.00
78144;BME280;67394;52.522;13.622;2024-02-23T01:56:02;98038.81;;;9.73;100.00
78144;BME280;67394;52.522;13.622;2024-02-23T01:58:30;98049.88;;;9.74;100.00
78144;BME280;67394;52.522;13.622;2024-02-23T02:00:57;98063.50;;;9.74;100.00
78144;BME280;67394;52.522;13.622;2024-02-23T02:03:23;98064.31;;;9.75;100.00
78144;BME280;67394;52.522;13.622;2024-02-23T02:05:50;98072.78;;;9.77;100.00
78144;BME280;67394;52.522;13.622;2024-02-23T02:08:16;98082.13;;;9.78;100.00
78144;BME280;67394;52.522;13.622;2024-02-23T02:10:43;98098.34;;;9.77;100.00
78144;BME280;67394;52.522;13.622;2024-02-23T02:13:10;98112.59;;;9.84;100.00
78144;BME280;67394;52.522;13.622;2024-02-23T02:15:37;98116.16;;;9.80;100.00
78144;BME280;67394;52.522;13.622;2024-02-23T02:18:03;98133.75;;;9.87;100.00
78144;BME280;67394;52.522;13.622;2024-02-23T02:20:32;98137.94;;;9.90;100.00
78144;BME280;67394;52.522;13.622;2024-02-23T02:22:59;98137.88;;;9.91;100.00
78144;BME280;67394;52.522;13.622;2024-02-23T02:25:26;98135.53;;;9.85;100.00
78144;BME280;67394;52.522;13.622;2024-02-23T02:27:53;98145.59;;;9.90;100.00
78144;BME280;67394;52.522;13.622;2024-02-23T02:30:19;98153.44;;;9.85;99.19
78144;BME280;67394;52.522;13.622;2024-02-23T02:32:46;98160.38;;;9.83;96.16
78144;BME280;67394;52.522;13.622;2024-02-23T02:35:12;98187.09;;;9.75;95.04
78144;BME280;67394;52.522;13.622;2024-02-23T02:37:39;98194.13;;;9.70;90.05
78144;BME280;67394;52.522;13.622;2024-02-23T02:40:06;98206.91;;;9.70;88.31
78144;BME280;67394;52.522;13.622;2024-02-23T02:42:33;98204.81;;;9.58;88.77
78144;BME280;67394;52.522;13.622;2024-02-23T02:45:00;98199.59;;;9.61;84.95
78144;BME280;67394;52.522;13.622;2024-02-23T02:47:26;98236.16;;;9.63;82.82
78144;BME280;67394;52.522;13.622;2024-02-23T02:49:53;98238.09;;;9.56;82.23
78144;BME280;67394;52.522;13.622;2024-02-23T02:52:20;98243.59;;;9.45;82.06
78144;BME280;67394;52.522;13.622;2024-02-23T02:54:46;98251.25;;;9.45;80.77
78144;BME280;67394;52.522;13.622;2024-02-23T02:57:14;98235.25;;;9.40;81.35
78144;BME280;67394;52.522;13.622;2024-02-23T02:59:40;98242.94;;;9.40;80.29
78144;BME280;67394;52.522;13.622;2024-02-23T03:02:07;98265.47;;;9.29;81.20
78144;BME280;67394;52.522;13.622;2024-02-23T03:04:33;98262.88;;;9.31;79.14
78144;BME280;67394;52.522;13.622;2024-02-23T03:07:00;98276.53;;;9.30;79.83
78144;BME280;67394;52.522;13.622;2024-02-23T03:09:26;98276.25;;;9.37;77.07
78144;BME280;67394;52.522;13.622;2024-02-23T03:11:52;98284.19;;;9.30;79.20
78144;BME280;67394;52.522;13.622;2024-02-23T03:14:19;98287.91;;;9.21;78.53
78144;BME280;67394;52.522;13.622;2024-02-23T03:16:46;98293.94;;;9.18;78.48
78144;BME280;67394;52.522;13.622;2024-02-23T03:19:12;98301.56;;;9.20;77.84
78144;BME280;67394;52.522;13.622;2024-02-23T03:21:39;98306.78;;;9.17;76.53
78144;BME280;67394;52.522;13.622;2024-02-23T03:24:05;98310.34;;;9.11;77.94
78144;BME280;67394;52.522;13.622;2024-02-23T03:26:32;98313.72;;;9.12;75.91
78144;BME280;67394;52.522;13.622;2024-02-23T03:28:59;98331.03;;;9.04;78.35
78144;BME280;67394;52.522;13.622;2024-02-23T03:31:25;98321.59;;;9.06;75.84
78144;BME280;67394;52.522;13.622;2024-02-23T03:33:52;98323.31;;;9.05;75.48
78144;BME280;67394;52.522;13.622;2024-02-23T03:36:18;98329.28;;;9.06;74.19
78144;BME280;67394;52.522;13.622;2024-02-23T03:38:45;98332.09;;;8.98;77.32
78144;BME280;67394;52.522;13.622;2024-02-23T03:41:11;98342.97;;;9.03;73.48
78144;BME280;67394;52.522;13.622;2024-02-23T03:43:38;98348.28;;;8.97;74.69
78144;BME280;67394;52.522;13.622;2024-02-23T03:46:06;98354.25;;;8.98;74.35
78144;BME280;67394;52.522;13.622;2024-02-23T03:48:32;98350.06;;;8.95;73.99
78144;BME280;67394;52.522;13.622;2024-02-23T03:50:59;98359.81;;;8.82;75.41
78144;BME280;67394;52.522;13.622;2024-02-23T03:53:25;98361.56;;;8.80;74.32
78144;BME280;67394;52.522;13.622;2024-02-23T03:55:52;98363.16;;;8.85;72.08
78144;BME280;67394;52.522;13.622;2024-02-23T03:58:18;98370.19;;;8.78;73.94
78144;BME280;67394;52.522;13.622;2024-02-23T04:00:45;98375.66;;;8.66;75.02
78144;BME280;67394;52.522;13.622;2024-02-23T04:03:12;98377.50;;;8.61;75.78
78144;BME280;67394;52.522;13.622;2024-02-23T04:05:38;98388.63;;;8.58;75.50
78144;BME280;67394;52.522;13.622;2024-02-23T04:08:05;98390.25;;;8.61;75.80
78144;BME280;67394;52.522;13.622;2024-02-23T04:10:32;98395.59;;;8.53;78.00
78144;BME280;67394;52.522;13.622;2024-02-23T04:12:59;98405.81;;;8.53;77.11
78144;BME280;67394;52.522;13.622;2024-02-23T04:15:26;98407.56;;;8.51;79.05
78144;BME280;67394;52.522;13.622;2024-02-23T04:17:52;98412.00;;;8.44;78.55
78144;BME280;67394;52.522;13.622;2024-02-23T04:20:19;98413.88;;;8.38;78.87
78144;BME280;67394;52.522;13.622;2024-02-23T04:22:45;98423.41;;;8.33;78.85
78144;BME280;67394;52.522;13.622;2024-02-23T04:25:12;98434.50;;;8.32;79.13
78144;BME280;67394;52.522;13.622;2024-02-23T04:27:38;98438.91;;;8.25;79.27
78144;BME280;67394;52.522;13.622;2024-02-23T04:30:05;98448.34;;;8.22;80.83
78144;BME280;67394;52.522;13.622;2024-02-23T04:32:32;98462.63;;;8.27;78.54
78144;BME280;67394;52.522;13.622;2024-02-23T04:34:59;98458.38;;;8.28;79.27
78144;BME280;67394;52.522;13.622;2024-02-23T04:37:28;98466.91;;;8.27;77.90
78144;BME280;67394;52.522;13.622;2024-02-23T04:39:54;98478.03;;;8.26;78.86
78144;BME280;67394;52.522;13.622;2024-02-23T04:42:21;98495.09;;;8.24;78.72
78144;BME280;67394;52.522;13.622;2024-02-23T04:44:47;98495.97;;;8.23;79.10
78144;BME280;67394;52.522;13.622;2024-02-23T04:47:14;98490.72;;;8.27;77.68
78144;BME280;67394;52.522;13.622;2024-02-23T04:49:40;98503.53;;;8.26;76.55
78144;BME280;67394;52.522;13.622;2024-02-23T04:52:07;98506.13;;;8.24;76.14
78144;BME280;67394;52.522;13.622;2024-02-23T04:54:35;98510.38;;;8.24;75.68
78144;BME280;67394;52.522;13.622;2024-02-23T04:57:02;98525.84;;;8.18;76.57
78144;BME280;67394;52.522;13.622;2024-02-23T04:59:29;98542.75;;;8.22;76.40
78144;BME280;67394;52.522;13.622;2024-02-23T05:01:55;98542.84;;;8.19;76.35
78144;BME280;67394;52.522;13.622;2024-02-23T05:04:23;98558.13;;;8.19;77.78
78144;BME280;67394;52.522;13.622;2024-02-23T05:06:50;98552.38;;;8.12;77.41
78144;BME280;67394;52.522;13.622;2024-02-23T05:09:17;98555.84;;;8.08;77.63
78144;BME280;67394;52.522;13.622;2024-02-23T05:11:43;98564.31;;;8.10;77.20
78144;BME280;67394;52.522;13.622;2024-02-23T05:14:10;98565.19;;;8.09;74.91
78144;BME280;67394;52.522;13.622;2024-02-23T05:16:36;98578.94;;;8.03;74.60
78144;BME280;67394;52.522;13.622;2024-02-23T05:19:03;98572.88;;;8.07;73.19
78144;BME280;67394;52.522;13.622;2024-02-23T05:21:29;98577.28;;;8.01;74.31
78144;BME280;67394;52.522;13.622;2024-02-23T05:23:56;98584.09;;;8.00;73.98
78144;BME280;67394;52.522;13.622;2024-02-23T05:26:23;98575.44;;;8.07;74.75
78144;BME280;67394;52.522;13.622;2024-02-23T05:28:49;98579.00;;;8.00;74.82
78144;BME280;67394;52.522;13.622;2024-02-23T05:31:15;98594.50;;;7.93;75.75
78144;BME280;67394;52.522;13.622;2024-02-23T05:33:42;98603.03;;;7.92;74.94
78144;BME280;67394;52.522;13.622;2024-02-23T05:36:08;98617.69;;;7.82;76.95
78144;BME280;67394;52.522;13.622;2024-02-23T05:38:35;98623.56;;;7.84;76.12
78144;BME280;67394;52.522;13.622;2024-02-23T05:41:01;98636.28;;;7.87;75.55
78144;BME280;67394;52.522;13.622;2024-02-23T05:43:28;98645.63;;;7.87;76.64
78144;BME280;67394;52.522;13.622;2024-02-23T05:45:55;98668.72;;;7.81;77.01
78144;BME280;67394;52.522;13.622;2024-02-23T05:48:21;98680.00;;;7.70;78.06
78144;BME280;67394;52.522;13.622;2024-02-23T05:50:48;98670.66;;;7.69;75.28
78144;BME280;67394;52.522;13.622;2024-02-23T05:53:14;98671.59;;;7.65;76.01
78144;BME280;67394;52.522;13.622;2024-02-23T05:55:42;98683.66;;;7.57;71.87
78144;BME280;67394;52.522;13.622;2024-02-23T05:58:09;98685.53;;;7.49;72.48
78144;BME280;67394;52.522;13.622;2024-02-23T06:00:35;98689.13;;;7.41;72.62
78144;BME280;67394;52.522;13.622;2024-02-23T06:03:02;98700.28;;;7.33;72.47
78144;BME280;67394;52.522;13.622;2024-02-23T06:05:28;98702.13;;;7.25;73.66
78144;BME280;67394;52.522;13.622;2024-02-23T06:07:55;98701.44;;;7.17;74.97
78144;BME280;67394;52.522;13.622;2024-02-23T06:10:22;98721.88;;;7.14;73.59
78144;BME280;67394;52.522;13.622;2024-02-23T06:12:49;98720.31;;;7.07;73.42
78144;BME280;67394;52.522;13.622;2024-02-23T06:15:17;98732.16;;;7.10;72.60
78144;BME280;67394;52.522;13.622;2024-02-23T06:17:43;98740.69;;;7.07;72.11
78144;BME280;67394;52.522;13.622;2024-02-23T06:20:10;98739.06;;;7.03;73.19
78144;BME280;67394;52.522;13.622;2024-02-23T06:22:36;98755.19;;;7.04;73.14
78144;BME280;67394;52.522;13.622;2024-02-23T06:25:03;98763.78;;;6.98;74.73
78144;BME280;67394;52.522;13.622;2024-02-23T06:27:30;98781.59;;;6.98;72.32
78144;BME280;67394;52.522;13.622;2024-02-23T06:29:56;98788.22;;;7.08;71.63
78144;BME280;67394;52.522;13.622;2024-02-23T06:32:23;98786.66;;;6.99;73.47
78144;BME280;67394;52.522;13.622;2024-02-23T06:34:51;98795.09;;;7.03;71.58
78144;BME280;67394;52.522;13.622;2024-02-23T06:37:17;98796.88;;;6.98;73.05
78144;BME280;67394;52.522;13.622;2024-02-23T06:39:44;98802.00;;;6.96;73.49
78144;BME280;67394;52.522;13.622;2024-02-23T06:42:10;98817.38;;;6.89;74.02
78144;BME280;67394;52.522;13.622;2024-02-23T06:44:37;98822.53;;;6.87;73.54
78144;BME280;67394;52.522;13.622;2024-02-23T06:47:04;98833.47;;;6.91;74.62
78144;BME280;67394;52.522;13.622;2024-02-23T06:49:30;98825.03;;;6.89;74.50
78144;BME280;67394;52.522;13.622;2024-02-23T06:51:57;98835.25;;;6.87;74.21
78144;BME280;67394;52.522;13.622;2024-02-23T06:54:24;98840.41;;;6.81;74.11
78144;BME280;67394;52.522;13.622;2024-02-23T06:56:50;98855.72;;;6.80;74.90
78144;BME280;67394;52.522;13.622;2024-02-23T06:59:17;98852.31;;;6.81;74.66
78144;BME280;67394;52.522;13.622;2024-02-23T07:01:50;98854.00;;;6.80;75.38
78144;BME280;67394;52.522;13.622;2024-02-23T07:04:17;98862.56;;;6.78;75.87
78144;BME280;67394;52.522;13.622;2024-02-23T07:06:44;98879.44;;;6.83;73.93
78144;BME280;67394;52.522;13.622;2024-02-23T07:09:11;98876.91;;;6.82;74.93
78144;BME280;67394;52.522;13.622;2024-02-23T07:11:38;98861.59;;;6.85;74.84
78144;BME280;67394;52.522;13.622;2024-02-23T07:14:05;98870.09;;;6.84;75.69
78144;BME280;67394;52.522;13.622;2024-02-23T07:16:32;98886.25;;;6.81;76.26
78144;BME280;67394;52.522;13.622;2024-02-23T07:18:58;98899.69;;;6.91;74.93
78144;BME280;67394;52.522;13.622;2024-02-23T07:21:25;98895.50;;;6.88;76.07
78144;BME280;67394;52.522;13.622;2024-02-23T07:23:52;98880.19;;;6.90;76.11
78144;BME280;67394;52.522;13.622;2024-02-23T07:26:18;98893.75;;;6.92;74.73
78144;BME280;67394;52.522;13.622;2024-02-23T07:28:45;98899.69;;;6.92;75.04
78144;BME280;67394;52.522;13.622;2024-02-23T07:31:12;98889.50;;;6.92;77.09
78144;BME280;67394;52.522;13.622;2024-02-23T07:33:47;98897.06;;;6.97;77.22
78144;BME280;67394;52.522;13.622;2024-02-23T07:36:14;98895.34;;;6.99;77.12
78144;BME280;67394;52.522;13.622;2024-02-23T07:38:41;98898.69;;;7.03;76.20
78144;BME280;67394;52.522;13.622;2024-02-23T07:41:07;98899.47;;;7.06;75.34
78144;BME280;67394;52.522;13.622;2024-02-23T07:43:34;98908.84;;;7.04;76.98
78144;BME280;67394;52.522;13.622;2024-02-23T07:46:01;98909.72;;;7.02;76.48
78144;BME280;67394;52.522;13.622;2024-02-23T07:48:28;98912.28;;;7.02;75.38
78144;BME280;67394;52.522;13.622;2024-02-23T07:50:54;98913.19;;;6.99;77.33
78144;BME280;67394;52.522;13.622;2024-02-23T07:53:21;98919.88;;;7.06;76.22
78144;BME280;67394;52.522;13.622;2024-02-23T07:55:48;98936.03;;;7.02;78.19
78144;BME280;67394;52.522;13.622;2024-02-23T07:58:14;98939.47;;;6.99;78.81
78144;BME280;67394;52.522;13.622;2024-02-23T08:00:41;98943.69;;;7.02;78.39
78144;BME280;67394;52.522;13.622;2024-02-23T08:03:08;98948.84;;;6.97;78.96
78144;BME280;67394;52.522;13.622;2024-02-23T08:05:34;98965.88;;;6.95;78.83
78144;BME280;67394;52.522;13.622;2024-02-23T08:08:01;98962.50;;;6.93;79.31
78144;BME280;67394;52.522;13.622;2024-02-23T08:10:28;98963.28;;;6.98;79.56
78144;BME280;67394;52.522;13.622;2024-02-23T08:12:55;98965.72;;;7.05;79.12
78144;BME280;67394;52.522;13.622;2024-02-23T08:15:21;98967.38;;;7.09;78.06
78144;BME280;67394;52.522;13.622;2024-02-23T08:17:48;98974.94;;;7.15;78.95
78144;BME280;67394;52.522;13.622;2024-02-23T08:20:15;98980.00;;;7.16;78.95
78144;BME280;67394;52.522;13.622;2024-02-23T08:22:41;98988.50;;;7.15;78.77
78144;BME280;67394;52.522;13.622;2024-02-23T08:25:08;98988.47;;;7.18;78.72
78144;BME280;67394;52.522;13.622;2024-02-23T08:27:38;98993.47;;;7.24;77.98
78144;BME280;67394;52.522;13.622;2024-02-23T08:30:05;98999.41;;;7.26;78.65
78144;BME280;67394;52.522;13.622;2024-02-23T08:32:32;99001.91;;;7.29;77.62
78144;BME280;67394;52.522;13.622;2024-02-23T08:35:00;99015.53;;;7.27;77.17
78144;BME280;67394;52.522;13.622;2024-02-23T08:37:27;99013.81;;;7.27;77.73
78144;BME280;67394;52.522;13.622;2024-02-23T08:39:53;99018.09;;;7.27;79.08
78144;BME280;67394;52.522;13.622;2024-02-23T08:42:20;99008.72;;;7.27;77.51
78144;BME280;67394;52.522;13.622;2024-02-23T08:44:47;99012.13;;;7.28;77.00
78144;BME280;67394;52.522;13.622;2024-02-23T08:47:14;99009.56;;;7.28;78.23
78144;BME280;67394;52.522;13.622;2024-02-23T08:49:41;99007.78;;;7.33;77.17
78144;BME280;67394;52.522;13.622;2024-02-23T08:52:07;99006.94;;;7.32;77.21
78144;BME280;67394;52.522;13.622;2024-02-23T09:01:10;99032.94;;;7.57;74.70
78144;BME280;67394;52.522;13.622;2024-02-23T09:03:36;99037.09;;;7.63;73.50
78144;BME280;67394;52.522;13.622;2024-02-23T09:06:03;99038.75;;;7.67;73.42
78144;BME280;67394;52.522;13.622;2024-02-23T09:08:32;99038.59;;;7.76;74.36
78144;BME280;67394;52.522;13.622;2024-02-23T09:10:59;99046.16;;;7.82;73.42
78144;BME280;67394;52.522;13.622;2024-02-23T09:13:26;99041.06;;;7.82;72.99
78144;BME280;67394;52.522;13.622;2024-02-23T09:15:52;99045.34;;;7.80;72.54
78144;BME280;67394;52.522;13.622;2024-02-23T09:18:19;99036.72;;;7.87;73.45
78144;BME280;67394;52.522;13.622;2024-02-23T09:20:45;99045.16;;;7.92;72.47
78144;BME280;67394;52.522;13.622;2024-02-23T09:23:13;99048.53;;;7.94;73.22
78144;BME280;67394;52.522;13.622;2024-02-23T09:25:41;99059.50;;;7.99;72.94
78144;BME280;67394;52.522;13.622;2024-02-23T09:28:09;99051.00;;;7.99;73.80
78144;BME280;67394;52.522;13.622;2024-02-23T09:30:44;99049.97;;;8.09;74.07
78144;BME280;67394;52.522;13.622;2024-02-23T09:33:10;99054.06;;;8.19;74.46
78144;BME280;67394;52.522;13.622;2024-02-23T09:35:37;99050.47;;;8.31;74.34
78144;BME280;67394;52.522;13.622;2024-02-23T09:38:03;99060.63;;;8.35;75.35
78144;BME280;67394;52.522;13.622;2024-02-23T09:40:31;99059.63;;;8.44;72.37
78144;BME280;67394;52.522;13.622;2024-02-23T09:42:58;99063.91;;;8.42;69.13
78144;BME280;67394;52.522;13.622;2024-02-23T09:45:25;99069.06;;;8.39;68.96
78144;BME280;67394;52.522;13.622;2024-02-23T09:47:53;99075.03;;;8.38;67.73
78144;BME280;67394;52.522;13.622;2024-02-23T09:50:22;99069.03;;;8.40;69.15
78144;BME280;67394;52.522;13.622;2024-02-23T09:52:50;99070.69;;;8.44;67.70
78144;BME280;67394;52.522;13.622;2024-02-23T09:55:17;99086.03;;;8.41;68.17
78144;BME280;67394;52.522;13.622;2024-02-23T09:57:44;99095.16;;;8.56;68.54
78144;BME280;67394;52.522;13.622;2024-02-23T10:00:16;99106.94;;;8.63;63.52
78144;BME280;67394;52.522;13.622;2024-02-23T10:02:43;99118.13;;;8.58;63.44
78144;BME280;67394;52.522;13.622;2024-02-23T10:05:11;99105.41;;;8.53;60.96
78144;BME280;67394;52.522;13.622;2024-02-23T10:07:37;99112.22;;;8.54;61.23
78144;BME280;67394;52.522;13.622;2024-02-23T10:10:08;99103.00;;;8.46;63.07
78144;BME280;67394;52.522;13.622;2024-02-23T10:12:35;99106.34;;;8.48;61.84
78144;BME280;67394;52.522;13.622;2024-02-23T10:15:04;99112.25;;;8.51;62.70
78144;BME280;67394;52.522;13.622;2024-02-23T10:17:31;99107.13;;;8.53;63.52
78144;BME280;67394;52.522;13.622;2024-02-23T10:20:02;99111.25;;;8.60;61.38
78144;BME280;67394;52.522;13.622;2024-02-23T10:22:30;99121.44;;;8.63;63.71
78144;BME280;67394;52.522;13.622;2024-02-23T10:24:57;99121.38;;;8.66;64.23
78144;BME280;67394;52.522;13.622;2024-02-23T10:27:23;99115.31;;;8.71;64.06
78144;BME280;67394;52.522;13.622;2024-02-23T10:29:50;99111.72;;;8.81;66.38
78144;BME280;67394;52.522;13.622;2024-02-23T10:32:18;99104.69;;;8.93;65.87
78144;BME280;67394;52.522;13.622;2024-02-23T10:34:47;99112.91;;;9.10;68.91
78144;BME280;67394;52.522;13.622;2024-02-23T10:37:14;99111.94;;;9.14;66.11
78144;BME280;67394;52.522;13.622;2024-02-23T10:39:41;99111.81;;;9.22;66.47
78144;BME280;67394;52.522;13.622;2024-02-23T10:42:09;99107.41;;;9.28;68.05
78144;BME280;67394;52.522;13.622;2024-02-23T10:44:37;99110.06;;;9.22;66.74
78144;BME280;67394;52.522;13.622;2024-02-23T10:47:04;99116.97;;;9.18;66.55
78144;BME280;67394;52.522;13.622;2024-02-23T10:49:32;99102.66;;;9.10;66.47
78144;BME280;67394;52.522;13.622;2024-02-23T10:52:00;99110.41;;;9.05;64.45
78144;BME280;67394;52.522;13.622;2024-02-23T10:54:28;99124.16;;;9.00;66.01
78144;BME280;67394;52.522;13.622;2024-02-23T10:56:55;99125.78;;;9.04;65.34
78144;BME280;67394;52.522;13.622;2024-02-23T10:59:26;99129.00;;;9.13;62.03
78144;BME280;67394;52.522;13.622;2024-02-23T11:01:54;99129.28;;;9.00;61.93
78144;BME280;67394;52.522;13.622;2024-02-23T11:04:22;99128.28;;;9.07;60.34
78144;BME280;67394;52.522;13.622;2024-02-23T11:06:54;99126.59;;;9.06;61.81
78144;BME280;67394;52.522;13.622;2024-02-23T11:09:23;99125.38;;;9.24;61.94
78144;BME280;67394;52.522;13.622;2024-02-23T11:11:56;99129.56;;;9.29;62.19
78144;BME280;67394;52.522;13.622;2024-02-23T11:14:31;99127.22;;;9.18;60.75
78144;BME280;67394;52.522;13.622;2024-02-23T11:16:59;99125.34;;;9.25;59.94
78144;BME280;67394;52.522;13.622;2024-02-23T11:19:36;99127.00;;;9.29;60.76
78144;BME280;67394;52.522;13.622;2024-02-23T11:22:04;99126.13;;;9.30;60.04
78144;BME280;67394;52.522;13.622;2024-02-23T11:24:43;99129.03;;;9.53;59.93
78144;BME280;67394;52.522;13.622;2024-02-23T11:27:13;99130.19;;;9.39;56.70
78144;BME280;67394;52.522;13.622;2024-02-23T11:29:41;99124.25;;;9.38;56.48
78144;BME280;67394;52.522;13.622;2024-02-23T11:32:15;99129.97;;;9.49;57.28
78144;BME280;67394;52.522;13.622;2024-02-23T11:34:42;99129.81;;;9.57;57.53
78144;BME280;67394;52.522;13.622;2024-02-23T11:37:12;99125.53;;;9.58;58.56
78144;BME280;67394;52.522;13.622;2024-02-23T11:39:40;99131.47;;;9.60;57.74
78144;BME280;67394;52.522;13.622;2024-02-23T11:42:08;99127.09;;;9.65;56.36
78144;BME280;67394;52.522;13.622;2024-02-23T11:44:35;99129.66;;;9.65;56.48
78144;BME280;67394;52.522;13.622;2024-02-23T11:47:02;99136.97;;;9.81;57.09
78144;BME280;67394;52.522;13.622;2024-02-23T11:49:29;99131.19;;;9.73;56.99
78144;BME280;67394;52.522;13.622;2024-02-23T11:51:56;99148.13;;;9.77;56.92
78144;BME280;67394;52.522;13.622;2024-02-23T11:54:22;99147.63;;;9.62;55.32
78144;BME280;67394;52.522;13.622;2024-02-23T11:56:49;99157.09;;;9.57;54.64
78144;BME280;67394;52.522;13.622;2024-02-23T11:59:16;99160.50;;;9.57;55.54
78144;BME280;67394;52.522;13.622;2024-02-23T12:01:42;99165.56;;;9.60;55.91
78144;BME280;67394;52.522;13.622;2024-02-23T12:04:09;99162.06;;;9.64;55.46
78144;BME280;67394;52.522;13.622;2024-02-23T12:06:36;99149.44;;;9.57;54.99
78144;BME280;67394;52.522;13.622;2024-02-23T12:09:02;99160.03;;;9.80;57.11
78144;BME280;67394;52.522;13.622;2024-02-23T12:11:29;99157.16;;;9.95;56.41
78144;BME280;67394;52.522;13.622;2024-02-23T12:13:56;99161.25;;;10.02;55.12
78144;BME280;67394;52.522;13.622;2024-02-23T12:16:25;99165.34;;;10.09;56.62
78144;BME280;67394;52.522;13.622;2024-02-23T12:18:53;99164.72;;;10.00;55.80
78144;BME280;67394;52.522;13.622;2024-02-23T12:21:20;99167.31;;;9.98;54.35
78144;BME280;67394;52.522;13.622;2024-02-23T12:23:49;99168.13;;;10.00;56.66
78144;BME280;67394;52.522;13.622;2024-02-23T12:26:17;99170.41;;;10.12;56.01
78144;BME280;67394;52.522;13.622;2024-02-23T12:28:44;99180.00;;;10.03;56.00
78144;BME280;67394;52.522;13.622;2024-02-23T12:31:11;99169.03;;;9.96;57.59
78144;BME280;67394;52.522;13.622;2024-02-23T12:33:40;99182.88;;;9.87;58.56
78144;BME280;67394;52.522;13.622;2024-02-23T12:36:08;99179.47;;;9.88;58.67
78144;BME280;67394;52.522;13.622;2024-02-23T12:38:35;99170.94;;;9.88;59.13
78144;BME280;67394;52.522;13.622;2024-02-23T12:41:02;99175.94;;;9.94;58.60
78144;BME280;67394;52.522;13.622;2024-02-23T12:43:29;99188.81;;;9.89;57.65
78144;BME280;67394;52.522;13.622;2024-02-23T12:45:57;99200.72;;;9.92;58.03
78144;BME280;67394;52.522;13.622;2024-02-23T12:48:24;99192.13;;;9.95;57.52
78144;BME280;67394;52.522;13.622;2024-02-23T12:50:51;99206.56;;;9.97;57.93
78144;BME280;67394;52.522;13.622;2024-02-23T12:53:30;99209.06;;;10.00;56.69
78144;BME280;67394;52.522;13.622;2024-02-23T12:55:58;99206.41;;;10.06;56.59
78144;BME280;67394;52.522;13.622;2024-02-23T12:58:24;99220.59;;;10.21;57.04
78144;BME280;67394;52.522;13.622;2024-02-23T13:00:51;99207.78;;;10.21;57.48
78144;BME280;67394;52.522;13.622;2024-02-23T13:03:18;99207.38;;;9.99;56.01